createdAt,value
2022-10-08T00:02:00.719Z,4.03
2022-10-08T00:04:29.997Z,3.40
2022-10-08T00:06:59.107Z,3.83
2022-10-08T00:09:28.251Z,4.32
2022-10-08T00:11:58.717Z,4.22
2022-10-08T00:14:27.857Z,5.55
2022-10-08T00:16:57.013Z,6.25
2022-10-08T00:19:26.279Z,6.65
2022-10-08T00:21:57.881Z,7.22
2022-10-08T00:24:27.758Z,8.30
2022-10-08T00:26:56.905Z,8.18
2022-10-08T00:29:25.977Z,9.57
2022-10-08T00:31:55.013Z,8.35
2022-10-08T00:34:25.549Z,7.55
2022-10-08T00:36:57.149Z,6.57
2022-10-08T00:39:27.303Z,6.40
2022-10-08T00:41:58.059Z,7.25
2022-10-08T00:45:00.715Z,6.97
2022-10-08T00:47:50.371Z,6.00
2022-10-08T00:50:31.147Z,5.20
2022-10-08T00:53:06.923Z,4.60
2022-10-08T00:55:43.390Z,5.47
2022-10-08T00:58:24.226Z,4.25
2022-10-08T01:00:54.491Z,3.50
2022-10-08T01:03:23.776Z,2.28
2022-10-08T01:06:17.863Z,2.90
2022-10-08T01:09:26.191Z,3.17
2022-10-08T01:12:47.671Z,4.07
2022-10-08T01:15:45.505Z,3.63
2022-10-08T01:18:53.483Z,11.75
2022-10-08T01:22:00.370Z,2.88
2022-10-08T01:25:08.098Z,3.30
2022-10-08T01:27:57.662Z,5.25
2022-10-08T01:30:26.931Z,3.45
2022-10-08T01:33:29.169Z,3.85
2022-10-08T01:36:02.807Z,3.30
2022-10-08T01:38:35.690Z,3.00
2022-10-08T01:41:10.710Z,3.40
2022-10-08T01:43:49.136Z,3.55
2022-10-08T01:49:03.492Z,2.85
2022-10-08T01:51:55.131Z,2.63
2022-10-08T01:54:31.257Z,3.47
2022-10-08T01:57:06.642Z,2.78
2022-10-08T02:00:03.060Z,2.92
2022-10-08T02:02:32.562Z,2.15
2022-10-08T02:05:01.825Z,2.13
2022-10-08T02:07:37.246Z,3.90
2022-10-08T02:10:20.200Z,2.70
2022-10-08T02:12:49.759Z,3.30
2022-10-08T02:15:55.537Z,2.22
2022-10-08T02:18:55.372Z,3.33
2022-10-08T02:21:29.467Z,4.88
2022-10-08T02:24:21.046Z,4.25
2022-10-08T02:26:55.904Z,3.70
2022-10-08T02:29:40.818Z,3.30
2022-10-08T02:32:36.881Z,3.60
2022-10-08T02:35:18.258Z,4.82
2022-10-08T02:38:07.861Z,4.05
2022-10-08T02:40:42.895Z,3.35
2022-10-08T02:43:21.801Z,3.00
2022-10-08T02:46:23.810Z,3.67
2022-10-08T02:49:28.595Z,2.20
2022-10-08T02:52:03.268Z,3.03
2022-10-08T02:54:39.660Z,2.20
2022-10-08T02:57:19.944Z,2.50
2022-10-08T02:59:50.538Z,1.98
2022-10-08T03:03:03.640Z,2.13
2022-10-08T03:05:33.087Z,1.75
2022-10-08T03:08:02.570Z,1.98
2022-10-08T03:10:32.595Z,1.95
2022-10-08T03:13:05.895Z,2.00
2022-10-08T03:15:38.127Z,1.83
2022-10-08T03:18:12.917Z,2.10
2022-10-08T03:20:51.703Z,1.95
2022-10-08T03:23:21.307Z,1.73
2022-10-08T03:25:50.428Z,1.38
2022-10-08T03:28:19.605Z,1.10
2022-10-08T03:30:50.179Z,1.20
2022-10-08T03:33:19.391Z,1.40
2022-10-08T03:35:49.495Z,1.70
2022-10-08T03:38:19.053Z,1.77
2022-10-08T03:40:59.291Z,1.30
2022-10-08T03:43:34.726Z,1.90
2022-10-08T03:46:05.246Z,1.80
2022-10-08T03:48:34.846Z,1.50
2022-10-08T03:51:24.943Z,3.00
2022-10-08T03:53:54.044Z,1.88
2022-10-08T03:56:27.769Z,1.83
2022-10-08T03:59:01.026Z,1.85
2022-10-08T04:01:31.780Z,1.58
2022-10-08T04:04:00.940Z,1.20
2022-10-08T04:06:29.981Z,1.33
2022-10-08T04:09:02.188Z,1.40
2022-10-08T04:11:31.911Z,1.52
2022-10-08T04:14:02.561Z,1.23
2022-10-08T04:16:31.667Z,1.30
2022-10-08T04:19:00.819Z,1.55
2022-10-08T04:21:32.692Z,1.35
2022-10-08T04:24:01.794Z,2.03
2022-10-08T04:26:31.034Z,0.82
2022-10-08T04:29:01.050Z,1.48
2022-10-08T04:31:30.185Z,1.70
2022-10-08T04:33:59.317Z,1.20
2022-10-08T04:36:28.581Z,1.35
2022-10-08T04:38:57.714Z,1.30
2022-10-08T04:41:28.822Z,1.10
2022-10-08T04:44:02.256Z,0.90
2022-10-08T04:46:31.589Z,3.60
2022-10-08T04:49:01.232Z,1.50
2022-10-08T04:51:30.678Z,1.33
2022-10-08T04:54:00.256Z,0.77
2022-10-08T04:56:33.468Z,1.15
2022-10-08T04:59:02.692Z,1.02
2022-10-08T05:01:33.624Z,0.70
2022-10-08T05:04:02.814Z,1.30
2022-10-08T05:06:33.703Z,1.20
2022-10-08T05:09:05.132Z,0.93
2022-10-08T05:11:35.090Z,1.25
2022-10-08T05:14:04.334Z,0.80
2022-10-08T05:16:33.997Z,0.82
2022-10-08T05:19:03.006Z,0.70
2022-10-08T05:21:33.899Z,0.60
2022-10-08T05:24:07.835Z,0.80
2022-10-08T05:26:58.905Z,0.60
2022-10-08T05:29:30.559Z,0.60
2022-10-08T05:31:59.659Z,0.57
2022-10-08T05:34:28.786Z,1.10
2022-10-08T05:36:57.844Z,0.63
2022-10-08T05:39:27.123Z,0.63
2022-10-08T05:41:56.259Z,2.35
2022-10-08T05:44:25.410Z,0.70
2022-10-08T05:46:54.647Z,0.55
2022-10-08T05:49:25.301Z,0.52
2022-10-08T05:51:54.355Z,0.70
2022-10-08T05:54:23.516Z,0.50
2022-10-08T05:56:52.834Z,0.70
2022-10-08T05:59:25.694Z,1.00
2022-10-08T06:01:55.849Z,1.10
2022-10-08T06:04:25.376Z,0.75
2022-10-08T06:06:54.606Z,0.93
2022-10-08T06:09:23.988Z,0.55
2022-10-08T06:11:53.983Z,0.57
2022-10-08T06:14:23.175Z,0.60
2022-10-08T06:16:52.357Z,0.50
2022-10-08T06:19:21.817Z,5.80
2022-10-08T06:21:51.330Z,0.82
2022-10-08T06:24:20.643Z,0.50
2022-10-08T06:26:49.783Z,0.45
2022-10-08T06:29:20.669Z,0.65
2022-10-08T06:31:50.214Z,0.55
2022-10-08T06:34:19.609Z,0.75
2022-10-08T06:36:48.824Z,1.67
2022-10-08T06:39:19.329Z,0.70
2022-10-08T06:41:48.738Z,0.30
2022-10-08T06:44:20.053Z,0.30
2022-10-08T06:46:49.539Z,0.50
2022-10-08T06:49:19.281Z,0.40
2022-10-08T06:51:48.313Z,0.70
2022-10-08T06:54:17.686Z,0.43
2022-10-08T06:56:46.721Z,1.10
2022-10-08T06:59:15.876Z,0.63
2022-10-08T07:01:45.132Z,1.10
2022-10-08T07:04:14.272Z,0.80
2022-10-08T07:06:43.413Z,0.90
2022-10-08T07:09:14.373Z,0.82
2022-10-08T07:11:43.584Z,0.50
2022-10-08T07:14:12.715Z,0.60
2022-10-08T07:16:41.915Z,0.77
2022-10-08T07:19:11.328Z,0.80
2022-10-08T07:21:41.637Z,0.65
2022-10-08T07:24:10.908Z,0.70
2022-10-08T07:26:39.956Z,1.00
2022-10-08T07:29:15.467Z,0.50
2022-10-08T07:31:45.011Z,0.70
2022-10-08T07:34:15.291Z,0.57
2022-10-08T07:36:44.614Z,2.63
2022-10-08T07:39:19.887Z,1.05
2022-10-08T07:41:50.940Z,0.77
2022-10-08T07:44:20.748Z,0.40
2022-10-08T07:46:54.633Z,0.70
2022-10-08T07:49:23.845Z,0.70
2022-10-08T07:51:52.914Z,0.60
2022-10-08T07:54:22.399Z,0.60
2022-10-08T07:56:51.725Z,0.60
2022-10-08T07:59:21.192Z,0.80
2022-10-08T08:01:51.254Z,0.57
2022-10-08T08:04:20.549Z,0.60
2022-10-08T08:06:50.139Z,0.85
2022-10-08T08:09:19.967Z,0.57
2022-10-08T08:11:50.951Z,0.50
2022-10-08T08:14:21.468Z,0.77
2022-10-08T08:16:50.665Z,0.40
2022-10-08T08:19:19.896Z,0.55
2022-10-08T08:21:49.050Z,0.38
2022-10-08T08:24:18.308Z,0.73
2022-10-08T08:26:47.452Z,0.82
2022-10-08T08:29:20.151Z,0.70
2022-10-08T08:31:51.381Z,0.68
2022-10-08T08:34:24.135Z,0.55
2022-10-08T08:36:54.892Z,1.13
2022-10-08T08:39:29.281Z,0.90
2022-10-08T08:42:46.503Z,0.70
2022-10-08T08:48:27.680Z,0.95
2022-10-08T08:51:00.457Z,1.10
2022-10-08T08:53:30.260Z,0.50
2022-10-08T08:56:06.140Z,0.70
2022-10-08T08:59:18.348Z,0.63
2022-10-08T09:01:51.641Z,0.60
2022-10-08T09:04:49.054Z,0.45
2022-10-08T09:07:27.330Z,1.00
2022-10-08T09:09:59.890Z,0.80
2022-10-08T09:12:40.736Z,1.30
2022-10-08T09:15:27.775Z,0.82
2022-10-08T09:17:56.982Z,0.67
2022-10-08T09:20:26.899Z,0.68
2022-10-08T09:22:58.513Z,1.77
2022-10-08T09:25:34.178Z,1.10
2022-10-08T09:28:07.449Z,0.85
2022-10-08T09:30:48.848Z,1.13
2022-10-08T09:33:33.048Z,0.85
2022-10-08T09:36:02.407Z,0.60
2022-10-08T09:38:39.812Z,1.27
2022-10-08T09:41:21.271Z,1.00
2022-10-08T09:44:21.622Z,0.40
2022-10-08T09:47:06.582Z,0.90
2022-10-08T09:49:41.230Z,0.95
2022-10-08T09:52:28.641Z,1.00
2022-10-08T09:55:10.377Z,2.42
2022-10-08T09:57:54.122Z,1.52
2022-10-08T10:00:37.184Z,1.48
2022-10-08T10:03:16.657Z,0.70
2022-10-08T10:05:52.834Z,1.15
2022-10-08T10:08:58.278Z,0.95
2022-10-08T10:11:48.927Z,1.33
2022-10-08T10:14:49.763Z,1.00
2022-10-08T10:17:39.744Z,1.38
2022-10-08T10:20:32.005Z,3.05
2022-10-08T10:23:25.784Z,2.83
2022-10-08T10:26:28.231Z,2.70
2022-10-08T10:29:14.056Z,1.58
2022-10-08T10:32:03.804Z,1.13
2022-10-08T10:34:41.489Z,5.65
2022-10-08T10:37:26.262Z,1.83
2022-10-08T10:40:27.288Z,1.52
2022-10-08T10:43:26.700Z,1.30
2022-10-08T10:46:40.679Z,1.40
2022-10-08T10:49:25.699Z,1.60
2022-10-08T10:52:35.076Z,1.88
2022-10-08T10:55:56.394Z,1.83
2022-10-08T10:59:24.382Z,2.50
2022-10-08T11:02:28.275Z,2.83
2022-10-08T11:05:21.219Z,3.30
2022-10-08T11:08:37.224Z,3.80
2022-10-08T11:11:53.229Z,5.28
2022-10-08T11:15:00.505Z,3.13
2022-10-08T11:18:10.285Z,3.30
2022-10-08T11:21:19.358Z,3.92
2022-10-08T11:24:26.601Z,3.65
2022-10-08T11:27:32.717Z,3.92
2022-10-08T11:30:23.049Z,3.75
2022-10-08T11:32:57.871Z,4.13
2022-10-08T11:36:14.935Z,3.58
2022-10-08T11:39:17.279Z,4.00
2022-10-08T11:42:08.203Z,5.15
2022-10-08T11:44:38.638Z,3.78
2022-10-08T11:47:58.465Z,2.88
2022-10-08T11:50:45.094Z,7.22
2022-10-08T11:53:24.273Z,7.78
2022-10-08T11:56:23.930Z,5.43
2022-10-08T11:59:08.363Z,4.43
2022-10-08T12:01:57.988Z,4.82
2022-10-08T12:04:48.395Z,5.05
2022-10-08T12:07:38.531Z,4.90
2022-10-08T12:10:47.107Z,4.15
2022-10-08T12:13:30.858Z,3.85
2022-10-08T12:16:08.425Z,4.20
2022-10-08T12:18:45.867Z,5.00
2022-10-08T12:21:42.078Z,4.40
2022-10-08T12:25:03.812Z,4.10
2022-10-08T12:27:45.909Z,3.97
2022-10-08T12:30:18.006Z,3.30
2022-10-08T12:33:00.526Z,3.95
2022-10-08T12:35:43.180Z,4.22
2022-10-08T12:39:12.894Z,5.10
2022-10-08T12:42:16.896Z,4.93
2022-10-08T12:45:29.231Z,4.50
2022-10-08T12:48:39.222Z,4.90
2022-10-08T12:51:58.747Z,4.55
2022-10-08T12:54:34.395Z,4.03
2022-10-08T12:57:19.046Z,3.03
2022-10-08T12:59:57.490Z,3.90
2022-10-08T13:02:41.778Z,4.50
2022-10-08T13:05:34.774Z,4.40
2022-10-08T13:08:39.660Z,4.10
2022-10-08T13:11:18.064Z,4.57
2022-10-08T13:13:55.568Z,3.72
2022-10-08T13:16:47.971Z,5.03
2022-10-08T13:19:39.735Z,3.80
2022-10-08T13:22:28.034Z,10.38
2022-10-08T13:24:59.977Z,6.32
2022-10-08T13:27:41.299Z,4.35
2022-10-08T13:30:34.156Z,3.30
2022-10-08T13:33:15.383Z,2.92
2022-10-08T13:36:02.007Z,3.03
2022-10-08T13:38:39.076Z,4.13
2022-10-08T13:41:16.738Z,4.15
2022-10-08T13:43:51.391Z,4.80
2022-10-08T13:46:26.023Z,3.97
2022-10-08T13:48:57.414Z,4.07
2022-10-08T13:51:30.190Z,4.25
2022-10-08T13:54:01.780Z,4.70
2022-10-08T13:56:36.585Z,4.63
2022-10-08T13:59:08.038Z,4.35
2022-10-08T14:01:41.301Z,4.38
2022-10-08T14:04:15.418Z,4.22
2022-10-08T14:06:52.022Z,4.60
2022-10-08T14:09:32.138Z,3.67
2022-10-08T14:12:11.886Z,4.32
2022-10-08T14:14:43.810Z,4.03
2022-10-08T14:17:16.027Z,5.10
2022-10-08T14:19:47.745Z,4.13
2022-10-08T14:22:23.136Z,5.07
2022-10-08T14:24:58.531Z,4.45
2022-10-08T14:27:33.095Z,4.13
2022-10-08T14:30:06.748Z,4.72
2022-10-08T14:32:38.905Z,4.25
2022-10-08T14:35:14.567Z,4.45
2022-10-08T14:37:49.747Z,5.63
2022-10-08T14:40:27.399Z,4.35
2022-10-08T14:42:59.323Z,5.15
2022-10-08T14:45:33.286Z,5.68
2022-10-08T14:48:04.953Z,5.18
2022-10-08T14:50:39.067Z,4.80
2022-10-08T14:53:10.730Z,5.35
2022-10-08T14:56:00.548Z,5.85
2022-10-08T14:58:33.647Z,5.68
2022-10-08T15:01:09.388Z,5.80
2022-10-08T15:03:38.655Z,5.22
2022-10-08T15:06:08.266Z,5.60
2022-10-08T15:08:39.311Z,5.30
2022-10-08T15:11:08.920Z,5.55
2022-10-08T15:13:39.496Z,5.88
2022-10-08T15:16:17.087Z,5.70
2022-10-08T15:18:52.221Z,5.13
2022-10-08T15:21:27.034Z,5.95
2022-10-08T15:24:05.043Z,5.25
2022-10-08T15:26:37.073Z,5.75
2022-10-08T15:29:11.935Z,5.07
2022-10-08T15:31:41.179Z,5.20
2022-10-08T15:34:18.997Z,5.57
2022-10-08T15:36:48.213Z,4.40
2022-10-08T15:39:20.013Z,6.13
2022-10-08T15:41:52.636Z,5.75
2022-10-08T15:44:28.239Z,6.28
2022-10-08T15:47:09.018Z,6.15
2022-10-08T15:49:44.366Z,5.22
2022-10-08T15:52:18.235Z,6.10
2022-10-08T15:54:48.355Z,5.90
2022-10-08T15:57:20.204Z,5.57
2022-10-08T15:59:49.330Z,6.00
2022-10-08T16:02:19.730Z,6.05
2022-10-08T16:04:49.409Z,6.85
2022-10-08T16:07:18.889Z,6.10
2022-10-08T16:09:48.363Z,7.18
2022-10-08T16:12:17.432Z,6.88
2022-10-08T16:14:46.572Z,6.43
2022-10-08T16:17:15.821Z,6.80
2022-10-08T16:19:44.982Z,6.57
2022-10-08T16:22:14.718Z,7.50
2022-10-08T16:24:43.849Z,6.82
2022-10-08T16:27:12.882Z,6.38
2022-10-08T16:29:42.063Z,6.82
2022-10-08T16:32:12.053Z,6.82
2022-10-08T16:34:44.165Z,6.45
2022-10-08T16:37:14.143Z,7.05
2022-10-08T16:39:43.644Z,5.50
2022-10-08T16:42:13.059Z,6.78
2022-10-08T16:44:42.148Z,5.90
2022-10-08T16:47:11.398Z,6.18
2022-10-08T16:49:41.160Z,5.75
2022-10-08T16:52:14.528Z,6.13
2022-10-08T16:54:44.506Z,6.07
2022-10-08T16:57:13.563Z,6.30
2022-10-08T16:59:42.737Z,6.85
2022-10-08T17:02:12.495Z,6.78
2022-10-08T17:04:41.595Z,6.30
2022-10-08T17:07:10.971Z,5.97
2022-10-08T17:09:40.115Z,6.50
2022-10-08T17:12:09.322Z,7.28
2022-10-08T17:14:39.243Z,6.72
2022-10-08T17:17:08.513Z,6.88
2022-10-08T17:19:37.845Z,7.20
2022-10-08T17:22:06.978Z,7.03
2022-10-08T17:24:41.531Z,7.95
2022-10-08T17:27:12.747Z,7.65
2022-10-08T17:29:41.980Z,6.30
2022-10-08T17:32:12.500Z,6.32
2022-10-08T17:34:41.508Z,5.20
2022-10-08T17:37:11.638Z,6.20
2022-10-08T17:39:40.747Z,5.88
2022-10-08T17:42:09.963Z,6.03
2022-10-08T17:44:39.055Z,6.35
2022-10-08T17:47:10.870Z,6.38
2022-10-08T17:49:40.071Z,6.60
2022-10-08T17:52:09.151Z,7.00
2022-10-08T17:54:38.333Z,6.60
2022-10-08T17:57:07.414Z,7.00
2022-10-08T17:59:36.614Z,7.05
2022-10-08T18:02:06.429Z,7.25
2022-10-08T18:04:35.703Z,6.82
2022-10-08T18:07:04.873Z,6.32
2022-10-08T18:09:34.303Z,6.72
2022-10-08T18:12:03.517Z,6.38
2022-10-08T18:14:32.663Z,6.65
2022-10-08T18:17:04.740Z,6.32
2022-10-08T18:19:33.908Z,8.15
2022-10-08T18:22:02.979Z,8.90
2022-10-08T18:24:32.312Z,8.73
2022-10-08T18:27:01.499Z,9.30
2022-10-08T18:29:30.674Z,8.52
2022-10-08T18:31:59.684Z,8.40
2022-10-08T18:34:28.814Z,8.10
2022-10-08T18:36:57.938Z,7.57
2022-10-08T18:39:28.605Z,8.57
2022-10-08T18:41:57.919Z,8.00
2022-10-08T18:44:28.427Z,7.80
2022-10-08T18:47:01.713Z,7.15
2022-10-08T18:49:34.641Z,7.85
2022-10-08T18:52:04.070Z,8.07
2022-10-08T18:54:33.166Z,7.97
2022-10-08T18:57:02.333Z,8.13
2022-10-08T18:59:33.075Z,7.32
2022-10-08T19:02:03.745Z,8.20
2022-10-08T19:04:32.907Z,7.00
2022-10-08T19:07:02.117Z,7.65
2022-10-08T19:09:31.545Z,6.63
2022-10-08T19:12:01.809Z,7.30
2022-10-08T19:14:31.040Z,8.52
2022-10-08T19:17:01.266Z,7.45
2022-10-08T19:19:32.618Z,7.88
2022-10-08T19:22:02.384Z,7.70
2022-10-08T19:24:31.974Z,7.32
2022-10-08T19:27:01.079Z,8.25
2022-10-08T19:29:34.675Z,8.20
2022-10-08T19:32:04.446Z,8.75
2022-10-08T19:34:34.442Z,9.07
2022-10-08T19:37:03.546Z,8.35
2022-10-08T19:39:32.690Z,8.45
2022-10-08T19:42:02.034Z,6.88
2022-10-08T19:44:31.095Z,5.97
2022-10-08T19:47:00.244Z,5.97
2022-10-08T19:49:29.354Z,5.82
2022-10-08T19:51:58.511Z,5.93
2022-10-08T19:54:27.737Z,5.35
2022-10-08T19:56:57.016Z,5.65
2022-10-08T19:59:26.281Z,5.30
2022-10-08T20:01:56.241Z,5.07
2022-10-08T20:04:25.356Z,4.40
2022-10-08T20:06:54.478Z,5.22
2022-10-08T20:09:24.176Z,4.57
2022-10-08T20:11:56.302Z,4.43
2022-10-08T20:14:25.429Z,4.72
2022-10-08T20:16:54.548Z,4.57
2022-10-08T20:19:24.581Z,4.20
2022-10-08T20:21:56.820Z,4.65
2022-10-08T20:24:26.031Z,4.38
2022-10-08T20:26:55.178Z,4.82
2022-10-08T20:29:30.033Z,4.18
2022-10-08T20:32:00.730Z,4.78
2022-10-08T20:34:32.611Z,3.90
2022-10-08T20:37:03.344Z,4.03
2022-10-08T20:39:32.668Z,3.80
2022-10-08T20:42:01.878Z,3.63
2022-10-08T20:44:30.978Z,3.38
2022-10-08T20:47:01.533Z,3.95
2022-10-08T20:49:34.928Z,3.67
2022-10-08T20:52:06.198Z,3.42
2022-10-08T20:54:35.648Z,3.53
2022-10-08T20:57:04.829Z,4.28
2022-10-08T20:59:35.200Z,5.32
2022-10-08T21:02:06.547Z,4.72
2022-10-08T21:04:35.837Z,4.07
2022-10-08T21:07:04.923Z,3.55
2022-10-08T21:09:34.107Z,4.25
2022-10-08T21:12:03.201Z,4.05
2022-10-08T21:14:32.676Z,3.75
2022-10-08T21:17:01.795Z,4.20
2022-10-08T21:19:31.025Z,4.05
2022-10-08T21:22:00.142Z,4.28
2022-10-08T21:24:29.366Z,3.60
2022-10-08T21:26:58.414Z,4.07
2022-10-08T21:29:27.418Z,4.20
2022-10-08T21:31:56.643Z,4.15
2022-10-08T21:34:25.723Z,3.63
2022-10-08T21:36:54.950Z,4.50
2022-10-08T21:39:23.927Z,4.28
2022-10-08T21:41:55.760Z,3.80
2022-10-08T21:44:24.995Z,4.72
2022-10-08T21:46:54.885Z,4.95
2022-10-08T21:49:25.038Z,4.80
2022-10-08T21:51:54.395Z,5.35
2022-10-08T21:54:23.520Z,4.22
2022-10-08T21:56:52.569Z,4.18
2022-10-08T21:59:21.657Z,3.75
2022-10-08T22:01:52.760Z,4.60
2022-10-08T22:04:24.988Z,4.75
2022-10-08T22:07:02.777Z,4.43
2022-10-08T22:09:35.866Z,4.68
2022-10-08T22:12:05.256Z,4.32
2022-10-08T22:14:34.414Z,4.15
2022-10-08T22:17:03.657Z,4.28
2022-10-08T22:19:32.987Z,4.15
2022-10-08T22:22:02.843Z,4.22
2022-10-08T22:24:31.923Z,4.30
2022-10-08T22:27:02.459Z,4.10
2022-10-08T22:29:31.538Z,3.90
2022-10-08T22:32:00.620Z,3.60
2022-10-08T22:34:29.916Z,4.03
2022-10-08T22:36:58.951Z,4.43
2022-10-08T22:39:28.236Z,4.50
2022-10-08T22:41:57.322Z,4.80
2022-10-08T22:44:26.397Z,4.70
2022-10-08T22:46:56.395Z,4.25
2022-10-08T22:49:25.622Z,4.70
2022-10-08T22:51:55.196Z,4.78
2022-10-08T22:54:24.382Z,4.47
2022-10-08T22:56:53.498Z,7.05
2022-10-08T22:59:25.487Z,7.45
2022-10-08T23:01:55.835Z,7.30
2022-10-08T23:04:25.015Z,7.30
2022-10-08T23:06:54.024Z,7.22
2022-10-08T23:09:23.014Z,7.40
2022-10-08T23:11:52.136Z,6.40
2022-10-08T23:14:21.234Z,6.65
2022-10-08T23:16:51.155Z,6.95
2022-10-08T23:19:20.407Z,7.80
2022-10-08T23:21:49.466Z,8.05
2022-10-08T23:24:18.599Z,7.78
2022-10-08T23:26:48.108Z,7.93
2022-10-08T23:29:17.957Z,8.00
2022-10-08T23:31:47.176Z,6.88
2022-10-08T23:34:17.364Z,9.18
2022-10-08T23:36:46.703Z,9.88
2022-10-08T23:39:18.374Z,8.45
2022-10-08T23:41:47.483Z,8.13
2022-10-08T23:44:16.712Z,6.38
2022-10-08T23:46:45.780Z,6.47
2022-10-08T23:49:14.963Z,6.00
2022-10-08T23:51:44.285Z,5.60
2022-10-08T23:54:13.444Z,6.00
2022-10-08T23:56:42.641Z,5.90
2022-10-08T23:59:12.056Z,4.97
